Flugplatz Soest/Bad Sassendorf (EDLZ)

Hier findest Du alle Informationen zum Flugplatz Soest/Bad Sassendorf (EDLZ).

Informationen für Piloten zum Flugplatz Soest/Bad Sassendorf

Hier findest Du alle relevanten Informationen, die Du als Pilot benötigst, um Soest/Bad Sassendorf anzufliegen.

Flugplatz: Soest/Bad Sassendorf ICAO-Code: EDLZ
Frequenz Turm: 133.465 Mhz GAFOR Gebiet: 32
Frequenz Ground: 133.465 Mhz Mogas: ja
Platzrunde: S 1200 ft Landegebühr: -
Platzhöhe: - Sunrise: 03:09 Uhr UTC
Pisten: 08/26 - 820 m x 30 m, GRAS Sunset: 19:51 Uhr UTC

Flugwetter am Flugplatz Soest/Bad Sassendorf

Die METAR Information stammen aus EDLP (27.97 km entfernt).

METAR Code:
2022/06/25 07:50
EDLP 250750Z 25008KT 210V300 CAVOK 21/12 Q1013

Temperatur: 16,1 °C Niederschlag: 9,5 mm (1h) Wind: 1,8 kt (max.: 3,4 kt in Böen)
Temperatur (min.): 15,4 °C Luftdruck: 1016 hPa Windrichtung: 156 °
Temperatur (max.): 17,0 °C Luftfeuchtigkeit: 92 % Bewölkung: 8/8

Flugschulen am Flugplatz Soest/Bad Sassendorf

Am Flugplatz Soest/Bad Sassendorf gibt es leider keine Flugschule.

Benachbarte Flugplätze und Flugschulen

Es gibt 21 weitere Flugplätze in einem Umkreis von 50 km um den Flugplatz Soest/Bad Sassendorf.

Jetzt anmelden

Passwort vergessen

Umfrage Archiv

Sendet Ihr ADS-B und/oder FLARM?

Ja
83.2 %
Nein
16.8 %
Stimmen: 173 | Diskussion
Anzeige: Roland Aircraft
Statistik Alle Mitglieder

Aktuell sind 58 Besucher online.

Anzeige: ULPower Aero Engines Anzeige: Pocket FMS